Time;durP1;ratioP1;P1;durP2;ratioP2;P2;SDS_P1;SDS_P2;PMS_P1;PMS_P2;Temp;Humidity;BMP_temperature;BMP_pressure;BME280_temperature;BME280_humidity;BME280_pressure;Samples;Min_cycle;Max_cycle;Signal;HPM_P1;HPM_P2
2021/06/18 00:02:21;;;;;;;13.27;6.32;;;;;;;;;;4878486;29;20481;-66
2021/06/18 00:04:47;;;;;;;13.57;6.90;;;;;;;;;;4878010;29;20040;-65
2021/06/18 00:07:13;;;;;;;13.43;6.25;;;;;;;;;;4877983;29;20129;-65
2021/06/18 00:09:39;;;;;;;13.32;7.03;;;;;;;;;;4877901;29;20041;-65
2021/06/18 00:12:05;;;;;;;13.75;6.35;;;;;;;;;;4877946;29;20101;-65
2021/06/18 00:14:31;;;;;;;9.60;6.38;;;;;;;;;;4878073;29;20104;-65
2021/06/18 00:16:57;;;;;;;10.98;6.32;;;;;;;;;;4878073;29;20037;-66
2021/06/18 00:19:23;;;;;;;16.77;6.68;;;;;;;;;;4877812;29;20031;-65
2021/06/18 00:21:50;;;;;;;10.52;6.90;;;;;;;;;;4877809;29;20040;-65
2021/06/18 00:24:16;;;;;;;13.70;6.65;;;;;;;;;;4877749;29;20037;-65
2021/06/18 00:26:42;;;;;;;12.18;6.72;;;;;;;;;;4877529;29;20037;-63
2021/06/18 00:29:08;;;;;;;8.77;5.95;;;;;;;;;;4877782;29;20044;-63
2021/06/18 00:31:34;;;;;;;13.32;6.45;;;;;;;;;;4877636;29;20084;-64
2021/06/18 00:34:00;;;;;;;14.70;6.93;;;;;;;;;;4877431;29;20064;-65
2021/06/18 00:36:27;;;;;;;11.65;6.63;;;;;;;;;;4877648;29;20493;-65
2021/06/18 00:38:53;;;;;;;12.40;6.80;;;;;;;;;;4877554;29;20033;-65
2021/06/18 00:41:19;;;;;;;11.32;6.72;;;;;;;;;;4860856;29;20092;-65
2021/06/18 00:43:45;;;;;;;11.73;6.63;;;;;;;;;;4877458;29;20032;-66
2021/06/18 00:46:11;;;;;;;14.00;7.28;;;;;;;;;;4874052;29;20060;-65
2021/06/18 00:48:37;;;;;;;12.80;7.65;;;;;;;;;;4873220;29;20591;-65
2021/06/18 00:51:04;;;;;;;12.68;7.10;;;;;;;;;;4873507;29;20037;-65
2021/06/18 00:53:30;;;;;;;13.88;7.18;;;;;;;;;;4874055;29;20490;-65
2021/06/18 00:55:56;;;;;;;12.60;6.97;;;;;;;;;;4875290;29;20029;-64
2021/06/18 00:58:23;;;;;;;12.85;7.30;;;;;;;;;;4877475;29;20112;-66
2021/06/18 01:00:49;;;;;;;10.77;7.30;;;;;;;;;;4877524;29;20415;-66
2021/06/18 01:03:15;;;;;;;13.27;6.88;;;;;;;;;;4877590;29;20054;-65
2021/06/18 01:05:42;;;;;;;13.90;6.50;;;;;;;;;;4877235;29;20600;-67
2021/06/18 01:08:14;;;;;;;11.15;7.10;;;;;;;;;;4877351;29;20052;-66
2021/06/18 01:10:48;;;;;;;14.35;7.25;;;;;;;;;;4877541;29;20025;-65
2021/06/18 01:13:45;;;;;;;12.30;6.88;;;;;;;;;;4877598;29;20501;-67
2021/06/18 01:16:11;;;;;;;11.63;7.53;;;;;;;;;;4820140;29;20125;-67
2021/06/18 01:19:06;;;;;;;18.25;7.60;;;;;;;;;;4819979;29;20041;-64
2021/06/18 01:21:37;;;;;;;13.45;7.90;;;;;;;;;;4748010;30;20056;-64
2021/06/18 01:24:30;;;;;;;10.33;6.67;;;;;;;;;;4749974;30;20178;-65
2021/06/18 01:27:05;;;;;;;14.45;7.15;;;;;;;;;;4751380;30;20055;-64
2021/06/18 01:29:39;;;;;;;12.30;7.55;;;;;;;;;;4751663;30;20085;-64
2021/06/18 01:32:08;;;;;;;11.63;6.75;;;;;;;;;;4751498;30;20044;-64
2021/06/18 01:34:36;;;;;;;12.70;7.28;;;;;;;;;;4751414;30;20033;-65
2021/06/18 01:37:12;;;;;;;14.70;7.03;;;;;;;;;;4751324;30;20098;-67
2021/06/18 01:39:38;;;;;;;14.40;7.32;;;;;;;;;;4751216;30;20589;-67
2021/06/18 01:42:05;;;;;;;12.05;6.80;;;;;;;;;;4751235;30;20067;-68
2021/06/18 01:44:32;;;;;;;11.25;7.15;;;;;;;;;;4750867;29;20101;-67
2021/06/18 01:47:00;;;;;;;12.48;7.20;;;;;;;;;;4750932;30;20060;-67
2021/06/18 01:49:27;;;;;;;11.25;6.50;;;;;;;;;;4751091;30;20083;-67
2021/06/18 01:51:54;;;;;;;12.88;6.78;;;;;;;;;;4759087;30;20124;-66
2021/06/18 01:54:26;;;;;;;13.88;7.78;;;;;;;;;;4786943;30;20036;-68
2021/06/18 01:56:53;;;;;;;17.08;7.72;;;;;;;;;;4792377;29;20054;-67
2021/06/18 01:59:19;;;;;;;11.70;6.93;;;;;;;;;;4880406;29;20100;-67
2021/06/18 02:01:48;;;;;;;11.38;6.15;;;;;;;;;;4882095;29;20033;-69
2021/06/18 02:04:14;;;;;;;13.13;7.10;;;;;;;;;;4881841;29;20025;-68
2021/06/18 02:06:41;;;;;;;10.38;6.72;;;;;;;;;;4880465;29;20061;-67
2021/06/18 02:09:07;;;;;;;11.32;6.50;;;;;;;;;;4880000;29;20040;-67
2021/06/18 02:11:35;;;;;;;12.02;6.38;;;;;;;;;;4880645;29;20025;-68
2021/06/18 02:14:02;;;;;;;12.70;7.10;;;;;;;;;;4880096;29;20084;-67
2021/06/18 02:16:29;;;;;;;10.55;7.05;;;;;;;;;;4880172;29;20037;-68
2021/06/18 02:18:55;;;;;;;11.65;7.00;;;;;;;;;;4879798;29;20135;-67
2021/06/18 02:21:23;;;;;;;13.38;6.57;;;;;;;;;;4879954;29;20105;-67
2021/06/18 02:23:49;;;;;;;13.27;5.97;;;;;;;;;;4879803;29;20179;-68
2021/06/18 02:26:16;;;;;;;13.15;6.55;;;;;;;;;;4880117;29;20025;-67
2021/06/18 02:28:42;;;;;;;15.27;5.90;;;;;;;;;;4879847;29;20492;-67
2021/06/18 02:31:08;;;;;;;9.48;6.13;;;;;;;;;;4879883;29;20114;-67
2021/06/18 02:33:34;;;;;;;8.98;6.70;;;;;;;;;;4879702;29;20029;-67
2021/06/18 02:36:00;;;;;;;12.57;6.55;;;;;;;;;;4878420;29;20617;-69
2021/06/18 02:38:26;;;;;;;11.05;6.70;;;;;;;;;;4879534;29;20025;-66
2021/06/18 02:40:52;;;;;;;12.77;6.55;;;;;;;;;;4879518;29;20025;-66
2021/06/18 02:43:18;;;;;;;12.77;6.50;;;;;;;;;;4879694;29;20025;-68
2021/06/18 02:45:45;;;;;;;9.88;6.45;;;;;;;;;;4879517;29;20036;-69
2021/06/18 02:48:16;;;;;;;11.45;6.55;;;;;;;;;;4879249;29;20049;-67
2021/06/18 02:50:44;;;;;;;12.55;6.70;;;;;;;;;;4879581;29;20122;-66
2021/06/18 02:53:29;;;;;;;10.90;6.60;;;;;;;;;;4879481;29;20477;-68
2021/06/18 02:55:58;;;;;;;11.18;6.07;;;;;;;;;;4876112;29;20043;-66
2021/06/18 02:58:33;;;;;;;9.90;5.90;;;;;;;;;;4875057;29;20112;-67
2021/06/18 03:01:02;;;;;;;8.93;5.80;;;;;;;;;;4875918;29;20366;-67
2021/06/18 03:03:38;;;;;;;12.68;6.10;;;;;;;;;;4875941;29;20063;-67
2021/06/18 03:06:05;;;;;;;8.52;5.63;;;;;;;;;;4876229;29;20024;-66
2021/06/18 03:08:37;;;;;;;9.75;5.63;;;;;;;;;;4879127;29;20482;-68
2021/06/18 03:11:03;;;;;;;9.30;5.68;;;;;;;;;;4879319;29;20174;-68
2021/06/18 03:13:35;;;;;;;9.98;5.72;;;;;;;;;;4878886;29;20488;-67
2021/06/18 03:16:01;;;;;;;14.90;6.28;;;;;;;;;;4879047;29;20033;-66
2021/06/18 03:18:28;;;;;;;12.80;6.50;;;;;;;;;;4879246;29;20740;-66
2021/06/18 03:20:56;;;;;;;10.07;6.32;;;;;;;;;;4878771;29;20037;-67
2021/06/18 03:23:23;;;;;;;9.93;5.82;;;;;;;;;;4878891;29;20025;-67
2021/06/18 03:25:49;;;;;;;10.75;5.80;;;;;;;;;;4878771;29;20152;-67
2021/06/18 03:28:16;;;;;;;9.63;5.80;;;;;;;;;;4878706;29;20052;-66
2021/06/18 03:30:45;;;;;;;9.95;6.00;;;;;;;;;;4878405;29;20044;-67
2021/06/18 03:33:12;;;;;;;8.95;5.82;;;;;;;;;;4878922;29;20040;-66
2021/06/18 03:35:38;;;;;;;11.07;5.80;;;;;;;;;;4878381;29;20029;-66
2021/06/18 03:38:05;;;;;;;11.13;7.00;;;;;;;;;;4861181;29;20131;-66
2021/06/18 03:40:31;;;;;;;11.50;5.78;;;;;;;;;;4878599;29;20085;-68
2021/06/18 03:42:58;;;;;;;13.00;6.03;;;;;;;;;;4878588;29;20044;-67
2021/06/18 03:45:24;;;;;;;12.48;7.13;;;;;;;;;;4878698;29;20032;-68
2021/06/18 03:47:51;;;;;;;10.73;6.40;;;;;;;;;;4878096;29;20565;-67
2021/06/18 03:50:22;;;;;;;13.25;6.72;;;;;;;;;;4878129;29;20433;-66
2021/06/18 03:52:48;;;;;;;11.18;6.10;;;;;;;;;;4878216;29;20044;-66
2021/06/18 03:55:14;;;;;;;10.80;6.13;;;;;;;;;;4878467;29;20029;-66
2021/06/18 03:57:42;;;;;;;10.40;6.40;;;;;;;;;;4878142;29;20112;-67
2021/06/18 04:00:09;;;;;;;12.93;6.55;;;;;;;;;;4878342;29;20029;-67
2021/06/18 04:02:37;;;;;;;10.80;6.13;;;;;;;;;;4878027;29;20035;-67
2021/06/18 04:05:03;;;;;;;11.27;5.72;;;;;;;;;;4877877;29;20060;-67
2021/06/18 04:07:30;;;;;;;9.98;6.10;;;;;;;;;;4877888;29;20033;-66
2021/06/18 04:09:57;;;;;;;10.82;5.57;;;;;;;;;;4878041;29;20036;-67
2021/06/18 04:12:23;;;;;;;10.98;5.57;;;;;;;;;;4877998;29;20392;-67
2021/06/18 04:14:49;;;;;;;9.85;5.90;;;;;;;;;;4877967;29;20056;-67
2021/06/18 04:17:15;;;;;;;8.85;5.88;;;;;;;;;;4878174;29;20045;-67
2021/06/18 04:19:43;;;;;;;10.93;5.50;;;;;;;;;;4861309;29;20033;-67
2021/06/18 04:22:10;;;;;;;10.73;5.22;;;;;;;;;;4877837;29;20124;-68
2021/06/18 04:24:36;;;;;;;6.80;5.65;;;;;;;;;;4878114;29;20033;-67
2021/06/18 04:27:02;;;;;;;9.63;5.00;;;;;;;;;;4877502;29;20073;-67
2021/06/18 04:29:28;;;;;;;9.40;5.30;;;;;;;;;;4877830;29;20025;-67
2021/06/18 04:31:54;;;;;;;7.05;5.60;;;;;;;;;;4877775;29;20033;-67
2021/06/18 04:34:20;;;;;;;10.18;6.40;;;;;;;;;;4877534;29;20442;-67
2021/06/18 04:36:46;;;;;;;9.20;5.70;;;;;;;;;;4877701;29;20029;-66
2021/06/18 04:39:13;;;;;;;9.80;6.00;;;;;;;;;;4860599;29;20052;-66
2021/06/18 04:41:39;;;;;;;7.85;5.70;;;;;;;;;;4877684;29;20029;-67
2021/06/18 04:44:05;;;;;;;7.30;4.82;;;;;;;;;;4877284;29;20491;-67
2021/06/18 04:46:31;;;;;;;8.95;5.68;;;;;;;;;;4877147;29;20383;-67
2021/06/18 04:48:57;;;;;;;11.18;5.93;;;;;;;;;;4877482;29;20417;-67
2021/06/18 04:51:24;;;;;;;9.35;6.15;;;;;;;;;;4877500;29;20137;-69
2021/06/18 04:53:53;;;;;;;8.95;6.25;;;;;;;;;;4877379;29;20064;-66
2021/06/18 04:56:20;;;;;;;8.45;5.30;;;;;;;;;;4877418;29;20405;-67
2021/06/18 04:58:46;;;;;;;11.85;5.55;;;;;;;;;;4876676;29;20051;-67
2021/06/18 05:01:12;;;;;;;14.77;5.72;;;;;;;;;;4860553;29;20060;-66
2021/06/18 05:03:38;;;;;;;8.20;5.47;;;;;;;;;;4877221;29;20037;-66
2021/06/18 05:06:04;;;;;;;9.68;5.18;;;;;;;;;;4877202;29;20660;-67
2021/06/18 05:08:30;;;;;;;8.70;5.07;;;;;;;;;;4876993;29;20553;-66
2021/06/18 05:10:56;;;;;;;10.43;5.53;;;;;;;;;;4877199;29;20466;-65
2021/06/18 05:13:23;;;;;;;10.43;5.70;;;;;;;;;;4877190;29;20090;-66
2021/06/18 05:15:49;;;;;;;9.73;6.45;;;;;;;;;;4876954;29;20028;-66
2021/06/18 05:18:15;;;;;;;10.35;6.28;;;;;;;;;;4877083;29;20029;-66
2021/06/18 05:20:42;;;;;;;12.45;6.45;;;;;;;;;;4877155;29;20369;-67
2021/06/18 05:23:09;;;;;;;9.75;6.07;;;;;;;;;;4876738;29;20041;-66
2021/06/18 05:25:35;;;;;;;10.35;6.60;;;;;;;;;;4877035;29;20043;-65
2021/06/18 05:28:01;;;;;;;10.43;6.53;;;;;;;;;;4876952;29;20482;-65
2021/06/18 05:30:27;;;;;;;12.85;8.30;;;;;;;;;;4877170;29;20396;-65
2021/06/18 05:32:54;;;;;;;9.15;6.53;;;;;;;;;;4876955;29;20037;-65
2021/06/18 05:35:20;;;;;;;8.40;5.85;;;;;;;;;;4876920;29;20041;-64
2021/06/18 05:37:46;;;;;;;8.52;5.65;;;;;;;;;;4876614;29;20530;-65
2021/06/18 05:40:13;;;;;;;11.45;5.90;;;;;;;;;;4877009;29;20040;-64
2021/06/18 05:42:40;;;;;;;11.45;6.07;;;;;;;;;;4876668;29;20416;-75
2021/06/18 05:45:07;;;;;;;11.80;6.20;;;;;;;;;;4877113;29;20030;-64
2021/06/18 05:47:33;;;;;;;13.07;7.22;;;;;;;;;;4876718;29;20072;-65
2021/06/18 05:49:59;;;;;;;11.30;6.15;;;;;;;;;;4876986;29;20036;-66
2021/06/18 05:52:25;;;;;;;10.13;6.13;;;;;;;;;;4876822;29;20565;-66
2021/06/18 05:54:51;;;;;;;12.88;6.78;;;;;;;;;;4877154;29;20362;-66
2021/06/18 05:57:17;;;;;;;11.55;6.53;;;;;;;;;;4876028;29;20402;-68
2021/06/18 05:59:43;;;;;;;13.32;6.55;;;;;;;;;;4876302;29;20017;-69
2021/06/18 06:02:09;;;;;;;14.05;6.93;;;;;;;;;;4876365;29;20033;-69
2021/06/18 06:04:35;;;;;;;11.88;6.93;;;;;;;;;;4876486;29;20017;-65
2021/06/18 06:07:01;;;;;;;13.93;7.70;;;;;;;;;;4875825;29;20029;-74
2021/06/18 06:09:28;;;;;;;10.52;6.80;;;;;;;;;;4844072;29;20140;-74
2021/06/18 06:11:54;;;;;;;11.57;8.10;;;;;;;;;;4879232;29;20465;-71
2021/06/18 06:14:21;;;;;;;8.88;6.75;;;;;;;;;;4878753;29;20056;-77
2021/06/18 06:16:47;;;;;;;10.48;7.03;;;;;;;;;;4878918;29;20100;-65
2021/06/18 06:19:14;;;;;;;8.48;6.55;;;;;;;;;;4876219;29;20073;-63
2021/06/18 06:21:40;;;;;;;17.55;7.60;;;;;;;;;;4878421;29;20044;-65
2021/06/18 06:24:08;;;;;;;9.55;6.60;;;;;;;;;;4878585;29;20081;-68
2021/06/18 06:26:36;;;;;;;13.45;6.88;;;;;;;;;;4876221;29;20113;-64
2021/06/18 06:29:02;;;;;;;10.70;7.38;;;;;;;;;;4878573;29;20044;-76
2021/06/18 06:31:28;;;;;;;8.98;6.80;;;;;;;;;;4878394;29;20085;-67
2021/06/18 06:33:54;;;;;;;12.65;6.57;;;;;;;;;;4878610;29;20490;-64
2021/06/18 06:36:20;;;;;;;10.88;7.25;;;;;;;;;;4861550;29;20500;-65
2021/06/18 06:38:49;;;;;;;14.13;6.68;;;;;;;;;;4876153;29;20029;-68
2021/06/18 06:41:15;;;;;;;13.15;7.53;;;;;;;;;;4878049;29;20568;-75
2021/06/18 06:43:41;;;;;;;13.13;7.32;;;;;;;;;;4878695;29;20116;-64
2021/06/18 06:46:07;;;;;;;19.88;15.02;;;;;;;;;;4879065;29;20112;-69
2021/06/18 06:48:33;;;;;;;17.65;8.50;;;;;;;;;;4878448;29;20051;-64
2021/06/18 06:50:59;;;;;;;12.38;7.95;;;;;;;;;;4877579;29;20104;-65
2021/06/18 06:53:26;;;;;;;14.35;7.82;;;;;;;;;;4878092;29;20039;-74
2021/06/18 06:55:52;;;;;;;11.85;7.10;;;;;;;;;;4879363;29;20105;-75
2021/06/18 06:58:18;;;;;;;15.00;7.97;;;;;;;;;;4878816;29;20040;-72
2021/06/18 07:00:44;;;;;;;12.13;6.97;;;;;;;;;;4878213;29;20040;-77
2021/06/18 07:03:10;;;;;;;21.00;10.70;;;;;;;;;;4874958;29;20153;-75
2021/06/18 07:05:36;;;;;;;11.65;6.75;;;;;;;;;;4877123;29;20026;-75
2021/06/18 07:08:19;;;;;;;11.25;6.57;;;;;;;;;;4877884;29;20100;-72
2021/06/18 07:10:46;;;;;;;12.57;7.55;;;;;;;;;;4861669;29;20033;-63
2021/06/18 07:13:12;;;;;;;17.42;8.57;;;;;;;;;;4879514;29;20470;-63
2021/06/18 07:15:38;;;;;;;11.43;7.00;;;;;;;;;;4878719;29;20037;-68
2021/06/18 07:18:05;;;;;;;12.85;6.38;;;;;;;;;;4878543;29;20033;-64
2021/06/18 07:20:31;;;;;;;10.68;6.80;;;;;;;;;;4877492;29;20516;-73
2021/06/18 07:22:57;;;;;;;11.68;7.47;;;;;;;;;;4877142;29;20041;-64
2021/06/18 07:25:23;;;;;;;13.10;6.45;;;;;;;;;;4877720;29;20037;-66
2021/06/18 07:27:49;;;;;;;14.45;7.30;;;;;;;;;;4877080;29;20052;-71
2021/06/18 07:30:15;;;;;;;15.45;7.43;;;;;;;;;;4877097;29;20074;-65
2021/06/18 07:32:41;;;;;;;14.10;7.60;;;;;;;;;;4876158;29;20033;-72
2021/06/18 07:35:07;;;;;;;14.07;7.53;;;;;;;;;;4876255;29;20033;-76
2021/06/18 07:37:33;;;;;;;13.60;8.32;;;;;;;;;;4876995;29;20032;-75
2021/06/18 07:40:00;;;;;;;22.42;11.30;;;;;;;;;;4877506;29;20157;-66
2021/06/18 07:42:26;;;;;;;13.93;7.85;;;;;;;;;;4878342;29;20121;-73
2021/06/18 07:44:52;;;;;;;14.75;8.25;;;;;;;;;;4878426;29;20386;-70
2021/06/18 07:47:18;;;;;;;13.55;8.02;;;;;;;;;;4877919;29;20057;-62
2021/06/18 07:49:44;;;;;;;17.20;8.38;;;;;;;;;;4878103;29;20044;-63
2021/06/18 07:52:10;;;;;;;14.68;7.35;;;;;;;;;;4878070;29;20062;-74
2021/06/18 07:54:37;;;;;;;13.55;7.68;;;;;;;;;;4878199;29;20116;-65
2021/06/18 07:57:03;;;;;;;14.70;9.13;;;;;;;;;;4877257;29;20032;-64
2021/06/18 07:59:29;;;;;;;14.60;7.88;;;;;;;;;;4878184;29;20033;-62
2021/06/18 08:01:55;;;;;;;11.48;7.35;;;;;;;;;;4878323;29;20028;-66
2021/06/18 08:04:21;;;;;;;13.77;7.72;;;;;;;;;;4877964;29;20043;-63
2021/06/18 08:06:47;;;;;;;13.30;7.60;;;;;;;;;;4877653;29;20068;-65
2021/06/18 08:09:13;;;;;;;14.38;8.63;;;;;;;;;;4877706;29;20025;-63
2021/06/18 08:11:39;;;;;;;13.80;7.78;;;;;;;;;;4877563;29;20029;-63
2021/06/18 08:14:05;;;;;;;14.23;8.52;;;;;;;;;;4877466;29;20553;-63
2021/06/18 08:16:31;;;;;;;22.65;11.60;;;;;;;;;;4877471;29;20474;-62
2021/06/18 08:18:58;;;;;;;15.15;11.23;;;;;;;;;;4877697;29;20036;-62
2021/06/18 08:21:24;;;;;;;19.05;12.10;;;;;;;;;;4877819;29;20075;-66
2021/06/18 08:23:50;;;;;;;22.45;12.77;;;;;;;;;;4877572;29;20061;-72
2021/06/18 08:26:16;;;;;;;16.05;11.10;;;;;;;;;;4877382;29;20089;-72
2021/06/18 08:28:42;;;;;;;19.75;11.48;;;;;;;;;;4875751;29;20037;-70
2021/06/18 08:31:08;;;;;;;17.10;10.95;;;;;;;;;;4872568;29;20665;-66
2021/06/18 08:33:36;;;;;;;21.08;13.13;;;;;;;;;;4872249;29;20191;-68
2021/06/18 08:36:03;;;;;;;16.17;12.07;;;;;;;;;;4873011;29;20707;-64
2021/06/18 08:38:29;;;;;;;22.52;12.10;;;;;;;;;;4872374;29;20053;-72
2021/06/18 08:40:55;;;;;;;17.38;11.38;;;;;;;;;;4877134;29;20055;-73
2021/06/18 08:43:21;;;;;;;17.77;10.90;;;;;;;;;;4877023;29;20021;-77
2021/06/18 08:45:47;;;;;;;16.90;9.88;;;;;;;;;;4877482;29;20032;-70
2021/06/18 08:48:14;;;;;;;18.30;10.73;;;;;;;;;;4876940;29;20057;-65
2021/06/18 08:50:40;;;;;;;16.10;10.57;;;;;;;;;;4876867;29;20111;-73
2021/06/18 08:53:10;;;;;;;17.67;10.55;;;;;;;;;;4876777;29;20041;-77
2021/06/18 08:55:37;;;;;;;17.42;10.85;;;;;;;;;;4877261;29;20108;-68
2021/06/18 08:58:04;;;;;;;14.23;10.75;;;;;;;;;;4877631;29;20582;-64
2021/06/18 09:00:32;;;;;;;13.75;10.65;;;;;;;;;;4877082;29;20029;-72
2021/06/18 09:02:58;;;;;;;17.25;10.65;;;;;;;;;;4877448;29;20041;-65
2021/06/18 09:05:25;;;;;;;15.10;10.35;;;;;;;;;;4877265;29;20166;-66
2021/06/18 09:08:01;;;;;;;17.67;11.55;;;;;;;;;;4876672;29;20038;-65
2021/06/18 09:10:29;;;;;;;19.80;12.00;;;;;;;;;;4876914;29;20044;-64
2021/06/18 09:13:04;;;;;;;17.33;12.10;;;;;;;;;;4876942;29;20029;-72
2021/06/18 09:15:30;;;;;;;23.60;11.88;;;;;;;;;;4877130;29;20037;-64
2021/06/18 09:17:56;;;;;;;18.67;11.20;;;;;;;;;;4876887;29;20036;-64
2021/06/18 09:20:24;;;;;;;14.80;10.25;;;;;;;;;;4877155;29;20021;-67
2021/06/18 09:22:50;;;;;;;20.85;10.00;;;;;;;;;;4877119;29;20033;-67
2021/06/18 09:25:17;;;;;;;13.75;8.95;;;;;;;;;;4876906;29;20041;-64
2021/06/18 09:27:45;;;;;;;16.30;10.27;;;;;;;;;;4877054;29;20037;-70
2021/06/18 09:30:17;;;;;;;19.10;11.98;;;;;;;;;;4876649;29;20500;-72
2021/06/18 09:32:43;;;;;;;;;;;;;;;;;;4877362;29;20116;-63
2021/06/18 09:35:09;;;;;;;11.85;8.07;;;;;;;;;;4875481;29;20320;-64
2021/06/18 09:37:38;;;;;;;12.77;8.10;;;;;;;;;;4871694;29;20511;-75
2021/06/18 09:40:07;;;;;;;13.15;7.82;;;;;;;;;;4876196;29;20033;-73
2021/06/18 09:42:45;;;;;;;12.30;6.65;;;;;;;;;;4876373;29;20025;-62
2021/06/18 09:45:12;;;;;;;11.63;6.80;;;;;;;;;;4870060;29;20147;-62
2021/06/18 09:47:38;;;;;;;13.68;6.88;;;;;;;;;;4866358;29;20061;-62
2021/06/18 09:50:14;;;;;;;10.98;6.20;;;;;;;;;;4862126;29;20022;-63
2021/06/18 09:52:40;;;;;;;15.70;6.00;;;;;;;;;;4863077;29;20045;-66
2021/06/18 09:55:07;;;;;;;10.98;5.05;;;;;;;;;;4867142;29;20385;-63
2021/06/18 09:57:40;;;;;;;9.82;4.78;;;;;;;;;;4869131;29;20676;-64
2021/06/18 10:00:08;;;;;;;7.45;4.80;;;;;;;;;;4862862;29;20034;-69
2021/06/18 10:02:37;;;;;;;10.93;4.03;;;;;;;;;;4868973;29;20021;-63
2021/06/18 10:05:05;;;;;;;7.70;3.63;;;;;;;;;;4862895;29;20529;-70
2021/06/18 10:07:34;;;;;;;5.88;3.33;;;;;;;;;;4859867;29;20527;-77
2021/06/18 10:10:00;;;;;;;8.60;4.90;;;;;;;;;;4861533;29;20025;-67
2021/06/18 10:12:28;;;;;;;9.55;4.13;;;;;;;;;;4861688;29;20033;-72
2021/06/18 10:14:55;;;;;;;4.72;2.78;;;;;;;;;;4860949;29;20021;-64
2021/06/18 10:17:21;;;;;;;3.85;2.60;;;;;;;;;;4861313;29;20425;-73
2021/06/18 10:19:47;;;;;;;7.90;2.97;;;;;;;;;;4861412;29;20022;-75
2021/06/18 10:22:15;;;;;;;5.03;2.42;;;;;;;;;;4860995;29;20037;-76
2021/06/18 10:24:44;;;;;;;6.95;2.55;;;;;;;;;;4861406;29;20385;-74
2021/06/18 10:27:16;;;;;;;4.00;2.15;;;;;;;;;;4861219;29;20033;-73
2021/06/18 10:29:42;;;;;;;2.63;1.90;;;;;;;;;;4860827;29;20025;-63
2021/06/18 10:32:27;;;;;;;4.55;2.30;;;;;;;;;;4861399;29;20060;-65
2021/06/18 10:34:53;;;;;;;2.55;1.75;;;;;;;;;;4860662;29;20767;-63
2021/06/18 10:37:25;;;;;;;4.40;2.40;;;;;;;;;;4877810;29;20469;-70
2021/06/18 10:39:52;;;;;;;4.10;2.00;;;;;;;;;;4879436;29;20473;-69
2021/06/18 10:42:19;;;;;;;4.82;2.47;;;;;;;;;;4879474;29;20028;-69
2021/06/18 10:44:47;;;;;;;6.28;2.53;;;;;;;;;;4879313;29;20071;-70
2021/06/18 10:47:22;;;;;;;4.45;2.67;;;;;;;;;;4878903;29;20061;-72
2021/06/18 10:49:50;;;;;;;6.65;2.63;;;;;;;;;;4879352;29;20048;-70
2021/06/18 10:52:18;;;;;;;3.15;2.33;;;;;;;;;;4879191;29;20057;-65
2021/06/18 10:54:50;;;;;;;5.88;2.50;;;;;;;;;;4879210;29;20052;-67
2021/06/18 10:57:16;;;;;;;;;;;;;;;;;;4877988;29;20112;-67
2021/06/18 10:59:46;;;;;;;4.13;2.58;;;;;;;;;;4878960;29;20002;-67
2021/06/18 11:02:23;;;;;;;4.22;2.67;;;;;;;;;;4879080;29;20017;-72
2021/06/18 11:04:55;;;;;;;5.25;2.90;;;;;;;;;;4861697;29;20045;-65
2021/06/18 11:07:24;;;;;;;8.82;3.50;;;;;;;;;;4875317;29;20101;-67
2021/06/18 11:09:53;;;;;;;9.85;2.72;;;;;;;;;;4875182;29;20064;-63
2021/06/18 11:12:22;;;;;;;4.43;2.70;;;;;;;;;;4878772;29;20489;-71
2021/06/18 11:14:49;;;;;;;4.45;2.70;;;;;;;;;;4876674;29;20056;-68
2021/06/18 11:17:34;;;;;;;8.57;3.42;;;;;;;;;;4878597;29;20028;-70
2021/06/18 11:20:00;;;;;;;7.80;3.65;;;;;;;;;;4878166;29;20037;-68
2021/06/18 11:22:35;;;;;;;6.28;3.88;;;;;;;;;;4877494;29;20044;-72
2021/06/18 11:25:01;;;;;;;8.32;4.15;;;;;;;;;;4859512;29;20513;-63
2021/06/18 11:27:30;;;;;;;6.70;3.75;;;;;;;;;;4859835;29;20037;-70
2021/06/18 11:30:15;;;;;;;10.82;3.35;;;;;;;;;;4872627;29;20142;-69
2021/06/18 11:32:42;;;;;;;4.72;2.72;;;;;;;;;;4873681;29;20120;-63
2021/06/18 11:35:27;;;;;;;6.65;3.30;;;;;;;;;;4877734;29;20088;-63
2021/06/18 11:37:53;;;;;;;7.20;3.30;;;;;;;;;;4876537;29;20044;-71
2021/06/18 11:40:23;;;;;;;5.07;3.25;;;;;;;;;;4877763;29;20032;-73
2021/06/18 11:42:49;;;;;;;5.88;3.28;;;;;;;;;;4877345;29;20116;-64
2021/06/18 11:45:16;;;;;;;7.07;3.53;;;;;;;;;;4876234;29;20025;-65
2021/06/18 11:47:44;;;;;;;6.03;3.72;;;;;;;;;;4877598;29;20128;-70
2021/06/18 11:50:11;;;;;;;8.32;3.92;;;;;;;;;;4876852;29;20033;-69
2021/06/18 11:52:38;;;;;;;5.63;3.55;;;;;;;;;;4877118;29;20029;-65
2021/06/18 11:55:04;;;;;;;7.97;3.28;;;;;;;;;;4876713;29;20028;-72
2021/06/18 11:57:36;;;;;;;7.43;3.47;;;;;;;;;;4874750;29;20369;-63
2021/06/18 12:00:03;;;;;;;3.95;3.00;;;;;;;;;;4874276;29;20037;-70
2021/06/18 12:02:31;;;;;;;5.00;3.70;;;;;;;;;;4875242;29;20029;-65
2021/06/18 12:05:01;;;;;;;5.40;3.80;;;;;;;;;;4876510;29;20029;-67
2021/06/18 12:07:31;;;;;;;5.25;3.53;;;;;;;;;;4876856;29;20064;-71
2021/06/18 12:09:57;;;;;;;5.97;3.70;;;;;;;;;;4877099;29;20029;-68
2021/06/18 12:12:23;;;;;;;5.13;3.70;;;;;;;;;;4877393;29;20476;-66
2021/06/18 12:14:55;;;;;;;5.60;3.80;;;;;;;;;;4877315;29;20499;-65
2021/06/18 12:17:21;;;;;;;5.55;3.83;;;;;;;;;;4876972;29;20029;-63
2021/06/18 12:19:49;;;;;;;5.00;2.58;;;;;;;;;;4877284;29;20139;-63
2021/06/18 12:22:16;;;;;;;3.80;2.30;;;;;;;;;;4877320;29;20037;-64
2021/06/18 12:24:50;;;;;;;4.38;2.70;;;;;;;;;;4876916;29;20052;-65
2021/06/18 12:27:21;;;;;;;4.20;2.50;;;;;;;;;;4877293;29;20081;-70
2021/06/18 12:29:48;;;;;;;4.60;2.70;;;;;;;;;;4877200;29;20463;-62
2021/06/18 12:32:15;;;;;;;4.47;3.00;;;;;;;;;;4875851;29;20068;-69
2021/06/18 12:34:56;;;;;;;3.28;2.50;;;;;;;;;;4869861;29;20021;-69
2021/06/18 12:37:23;;;;;;;6.70;2.47;;;;;;;;;;4871615;29;20048;-70
2021/06/18 12:39:50;;;;;;;3.28;2.40;;;;;;;;;;4865846;29;20132;-73
2021/06/18 12:42:18;;;;;;;4.95;2.70;;;;;;;;;;4861291;29;20470;-70
2021/06/18 12:44:44;;;;;;;5.43;2.60;;;;;;;;;;4859139;29;20089;-72
2021/06/18 12:47:11;;;;;;;5.78;2.83;;;;;;;;;;4875155;29;20049;-68
2021/06/18 12:49:37;;;;;;;6.22;2.97;;;;;;;;;;4877245;29;20025;-71
2021/06/18 12:52:14;;;;;;;4.88;2.20;;;;;;;;;;4877146;29;20481;-71
2021/06/18 12:54:40;;;;;;;6.10;2.70;;;;;;;;;;4876727;29;20553;-70
2021/06/18 12:57:07;;;;;;;5.10;2.30;;;;;;;;;;4876943;29;20036;-66
2021/06/18 12:59:37;;;;;;;5.55;2.60;;;;;;;;;;4859996;29;20054;-70
2021/06/18 13:02:03;;;;;;;3.83;2.17;;;;;;;;;;4858274;29;20026;-64
2021/06/18 13:04:32;;;;;;;5.88;2.38;;;;;;;;;;4862912;29;20025;-62
2021/06/18 13:06:58;;;;;;;4.97;2.50;;;;;;;;;;4876202;29;20623;-63
2021/06/18 13:09:35;;;;;;;3.70;2.35;;;;;;;;;;4876816;29;20033;-62
2021/06/18 13:12:01;;;;;;;3.47;2.67;;;;;;;;;;4876856;29;20116;-64
2021/06/18 13:14:28;;;;;;;3.40;2.42;;;;;;;;;;4876734;29;20059;-69
2021/06/18 13:16:56;;;;;;;3.92;2.40;;;;;;;;;;4876374;29;20389;-69
2021/06/18 13:19:37;;;;;;;4.75;2.40;;;;;;;;;;4877798;29;20052;-61
2021/06/18 13:22:09;;;;;;;3.30;2.45;;;;;;;;;;4880101;29;20043;-62
2021/06/18 13:24:47;;;;;;;5.65;2.60;;;;;;;;;;4880183;29;20132;-62
2021/06/18 13:27:13;;;;;;;3.47;2.60;;;;;;;;;;4880605;29;20045;-62
2021/06/18 13:30:00;;;;;;;5.32;2.28;;;;;;;;;;4880707;29;20059;-62
2021/06/18 13:32:29;;;;;;;7.40;2.30;;;;;;;;;;4878719;29;20033;-62
2021/06/18 13:35:00;;;;;;;4.05;2.65;;;;;;;;;;4876397;29;20057;-63
2021/06/18 13:37:28;;;;;;;3.05;2.28;;;;;;;;;;4879696;29;20033;-66
2021/06/18 13:40:00;;;;;;;5.22;2.30;;;;;;;;;;4879111;29;20112;-72
2021/06/18 13:42:26;;;;;;;5.38;2.40;;;;;;;;;;4878701;29;20575;-68
2021/06/18 13:44:52;;;;;;;3.55;2.65;;;;;;;;;;4879094;29;20060;-69
2021/06/18 13:47:18;;;;;;;5.72;2.75;;;;;;;;;;4879274;29;20053;-75
2021/06/18 13:49:44;;;;;;;4.78;2.70;;;;;;;;;;4874605;29;20029;-74
2021/06/18 13:52:10;;;;;;;4.35;2.90;;;;;;;;;;4861881;29;20033;-68
2021/06/18 13:54:36;;;;;;;3.85;3.10;;;;;;;;;;4867540;29;20064;-67
2021/06/18 13:57:03;;;;;;;7.07;3.10;;;;;;;;;;4873534;29;20361;-69
2021/06/18 13:59:29;;;;;;;6.82;2.83;;;;;;;;;;4877693;29;20047;-64
2021/06/18 14:01:55;;;;;;;7.28;3.03;;;;;;;;;;4879002;29;20060;-69
2021/06/18 14:04:21;;;;;;;4.88;2.60;;;;;;;;;;4867345;29;20044;-69
2021/06/18 14:06:47;;;;;;;6.63;3.00;;;;;;;;;;4867577;29;20037;-71
2021/06/18 14:09:13;;;;;;;3.85;2.60;;;;;;;;;;4870265;29;20048;-71
2021/06/18 14:11:39;;;;;;;4.35;2.55;;;;;;;;;;4876870;29;20035;-72
2021/06/18 14:14:06;;;;;;;4.47;2.65;;;;;;;;;;4877100;29;20029;-65
2021/06/18 14:16:38;;;;;;;6.55;2.78;;;;;;;;;;4874721;29;20039;-69
2021/06/18 14:19:04;;;;;;;6.20;2.53;;;;;;;;;;4873991;29;20033;-68
2021/06/18 14:21:30;;;;;;;8.07;3.55;;;;;;;;;;4877703;29;20757;-69
2021/06/18 14:23:59;;;;;;;4.25;3.00;;;;;;;;;;4875082;29;20044;-70
2021/06/18 14:26:25;;;;;;;6.40;2.55;;;;;;;;;;4868285;29;20149;-70
2021/06/18 14:28:51;;;;;;;5.32;2.78;;;;;;;;;;4878857;29;20377;-68
2021/06/18 14:31:18;;;;;;;5.13;2.88;;;;;;;;;;4878924;29;20108;-70
2021/06/18 14:33:45;;;;;;;5.20;2.97;;;;;;;;;;4880125;29;20033;-68
2021/06/18 14:36:11;;;;;;;8.68;2.55;;;;;;;;;;4878267;29;20044;-68
2021/06/18 14:38:37;;;;;;;4.10;2.40;;;;;;;;;;4879383;29;20498;-70
2021/06/18 14:41:03;;;;;;;4.63;2.58;;;;;;;;;;4880195;29;20021;-68